Time;durP1;ratioP1;P1;durP2;ratioP2;P2;SDS_P1;SDS_P2;PMS_P1;PMS_P2;Temp;Humidity;BMP_temperature;BMP_pressure;BME280_temperature;BME280_humidity;BME280_pressure;Samples;Min_cycle;Max_cycle;Signal;HPM_P1;HPM_P2
2023/05/25 00:01:10;;;;;;;5.32;3.58;;;12.00;96.40;;;;;;5990325;23;20797;-74
2023/05/25 00:03:39;;;;;;;7.25;3.80;;;12.00;96.30;;;;;;5975646;23;20214;-74
2023/05/25 00:06:07;;;;;;;5.63;3.25;;;11.90;96.20;;;;;;5989712;23;20186;-74
2023/05/25 00:08:35;;;;;;;5.05;3.10;;;11.80;96.30;;;;;;5991325;23;20218;-74
2023/05/25 00:11:02;;;;;;;5.60;3.25;;;11.80;96.40;;;;;;5999545;23;20546;-74
2023/05/25 00:13:29;;;;;;;8.77;3.90;;;11.80;96.40;;;;;;5992244;23;20222;-74
2023/05/25 00:15:56;;;;;;;6.70;3.30;;;11.70;96.60;;;;;;5993985;23;20197;-74
2023/05/25 00:18:24;;;;;;;7.50;3.55;;;11.70;96.80;;;;;;6002852;23;20301;-74
2023/05/25 00:20:52;;;;;;;6.50;3.38;;;11.70;96.90;;;;;;5984633;23;20202;-74
2023/05/25 00:23:20;;;;;;;7.75;3.92;;;11.70;97.00;;;;;;5985651;23;20216;-74
2023/05/25 00:25:48;;;;;;;7.88;3.25;;;11.70;97.20;;;;;;5991080;23;20193;-74
2023/05/25 00:28:15;;;;;;;7.65;3.55;;;11.60;97.30;;;;;;5993158;23;20310;-74
2023/05/25 00:30:42;;;;;;;5.32;2.95;;;11.60;97.50;;;;;;5992687;23;20218;-74
2023/05/25 00:33:10;;;;;;;7.40;3.13;;;11.60;97.50;;;;;;5988969;23;20198;-74
2023/05/25 00:35:37;;;;;;;4.10;3.08;;;11.60;97.70;;;;;;5984894;23;20296;-74
2023/05/25 00:38:04;;;;;;;4.57;3.13;;;11.60;97.80;;;;;;5995833;23;20252;-74
2023/05/25 00:40:31;;;;;;;3.70;2.95;;;11.60;98.00;;;;;;5984419;23;20297;-74
2023/05/25 00:42:59;;;;;;;8.35;3.20;;;11.60;98.20;;;;;;5993899;23;20273;-74
2023/05/25 00:45:27;;;;;;;7.40;4.07;;;11.60;98.30;;;;;;5983621;23;20191;-74
2023/05/25 00:47:54;;;;;;;5.95;3.50;;;11.60;98.50;;;;;;5983317;23;20210;-74
2023/05/25 00:50:35;;;;;;;5.47;3.90;;;11.60;98.40;;;;;;5981584;23;20275;-74
2023/05/25 00:53:02;;;;;;;8.15;3.58;;;11.60;98.50;;;;;;5979389;23;20195;-74
2023/05/25 00:55:31;;;;;;;8.18;3.42;;;11.30;98.40;;;;;;5975087;23;20245;-74
2023/05/25 00:58:02;;;;;;;6.53;3.20;;;11.60;98.70;;;;;;5977845;23;20301;-74
2023/05/25 01:00:32;;;;;;;6.90;3.42;;;11.60;98.90;;;;;;5995346;23;20198;-74
2023/05/25 01:03:00;;;;;;;6.22;3.30;;;11.60;98.90;;;;;;5993909;23;20260;-74
2023/05/25 01:05:29;;;;;;;5.68;3.45;;;11.60;99.00;;;;;;5985913;23;20593;-74
2023/05/25 01:08:00;;;;;;;6.82;3.55;;;11.60;99.00;;;;;;5992109;23;20589;-74
2023/05/25 01:10:31;;;;;;;5.55;3.50;;;11.60;99.00;;;;;;5988572;23;20241;-74
2023/05/25 01:13:01;;;;;;;9.63;3.70;;;11.60;99.10;;;;;;6001269;23;20190;-74
2023/05/25 01:15:30;;;;;;;8.73;3.45;;;11.60;99.20;;;;;;5975494;23;20187;-74
2023/05/25 01:17:58;;;;;;;8.88;3.55;;;11.60;99.20;;;;;;5981773;23;20246;-74
2023/05/25 01:20:26;;;;;;;5.07;3.15;;;11.60;99.20;;;;;;5975250;23;20198;-74
2023/05/25 01:22:59;;;;;;;6.68;3.35;;;11.60;99.40;;;;;;5996032;23;20245;-74
2023/05/25 01:25:32;;;;;;;9.15;3.78;;;11.50;99.50;;;;;;5981494;23;20226;-74
2023/05/25 01:28:04;;;;;;;6.63;4.20;;;11.70;99.60;;;;;;5995736;23;20217;-74
2023/05/25 01:30:32;;;;;;;6.70;3.50;;;11.50;99.60;;;;;;5997033;23;20182;-74
2023/05/25 01:33:00;;;;;;;10.18;3.35;;;11.50;99.70;;;;;;5994467;23;20224;-74
2023/05/25 01:35:28;;;;;;;7.15;4.22;;;11.50;99.80;;;;;;5996231;23;20676;-74
2023/05/25 01:37:58;;;;;;;9.23;4.13;;;11.50;99.90;;;;;;5975867;23;20211;-74
2023/05/25 01:40:25;;;;;;;6.68;3.38;;;11.50;99.90;;;;;;5981123;23;20281;-74
2023/05/25 01:42:52;;;;;;;7.75;3.50;;;11.40;99.90;;;;;;5987294;23;20199;-74
2023/05/25 01:45:19;;;;;;;6.07;3.40;;;11.40;99.90;;;;;;5992462;23;20222;-73
2023/05/25 01:47:55;;;;;;;6.18;3.30;;;11.40;99.90;;;;;;5983894;23;20207;-74
2023/05/25 01:50:41;;;;;;;6.00;3.42;;;11.40;99.90;;;;;;5996705;23;20198;-74
2023/05/25 01:53:13;;;;;;;7.15;3.88;;;11.40;99.90;;;;;;5995847;23;20201;-74
2023/05/25 01:55:47;;;;;;;8.30;4.22;;;11.30;99.90;;;;;;5991327;23;20238;-73
2023/05/25 01:58:16;;;;;;;8.57;3.50;;;11.30;99.90;;;;;;5991527;23;20859;-74
2023/05/25 02:00:44;;;;;;;7.68;3.50;;;11.20;99.90;;;;;;5988748;23;20194;-74
2023/05/25 02:03:12;;;;;;;7.03;3.55;;;11.20;99.90;;;;;;5991796;23;20190;-74
2023/05/25 02:05:42;;;;;;;6.70;3.63;;;11.20;99.90;;;;;;5994121;23;20763;-74
2023/05/25 02:08:10;;;;;;;4.07;2.97;;;11.10;99.90;;;;;;5999427;23;20297;-74
2023/05/25 02:10:37;;;;;;;9.27;3.90;;;11.10;99.90;;;;;;6000347;23;20536;-74
2023/05/25 02:13:04;;;;;;;6.05;3.20;;;11.10;99.90;;;;;;6001369;23;20190;-74
2023/05/25 02:15:33;;;;;;;5.75;4.15;;;11.10;99.90;;;;;;6003569;23;20194;-74
2023/05/25 02:18:00;;;;;;;6.88;3.65;;;11.00;99.90;;;;;;5987412;23;20683;-74
2023/05/25 02:20:27;;;;;;;7.22;3.50;;;11.00;99.90;;;;;;5990743;23;20204;-74
2023/05/25 02:22:55;;;;;;;9.45;4.15;;;11.00;99.90;;;;;;6004440;23;20800;-74
2023/05/25 02:25:23;;;;;;;7.82;3.80;;;10.90;99.90;;;;;;6000805;23;20217;-74
2023/05/25 02:27:50;;;;;;;5.15;3.78;;;10.90;99.90;;;;;;6002512;23;20210;-74
2023/05/25 02:30:17;;;;;;;7.15;4.00;;;10.90;99.90;;;;;;5986507;23;20200;-74
2023/05/25 02:32:44;;;;;;;6.15;3.40;;;10.90;99.90;;;;;;6001826;23;20190;-74
2023/05/25 02:35:12;;;;;;;7.32;4.00;;;10.90;99.90;;;;;;6003226;23;20192;-73
2023/05/25 02:37:39;;;;;;;7.65;4.13;;;10.80;99.90;;;;;;5992428;23;20210;-74
2023/05/25 02:40:08;;;;;;;5.57;3.72;;;10.80;99.90;;;;;;6001823;23;20596;-74
2023/05/25 02:42:36;;;;;;;8.32;4.32;;;10.80;99.90;;;;;;5981117;23;20270;-74
2023/05/25 02:45:05;;;;;;;6.93;3.83;;;10.80;99.90;;;;;;6003765;23;20218;-74
2023/05/25 02:47:32;;;;;;;6.82;3.42;;;10.70;99.90;;;;;;5986423;23;20237;-74
2023/05/25 02:49:59;;;;;;;6.00;3.47;;;10.70;99.90;;;;;;6003410;23;20248;-74
2023/05/25 02:52:26;;;;;;;7.68;4.45;;;10.90;99.90;;;;;;6004433;23;20198;-74
2023/05/25 02:54:53;;;;;;;7.43;3.92;;;10.70;99.90;;;;;;6002592;23;20190;-74
2023/05/25 02:57:20;;;;;;;8.77;4.65;;;10.60;99.90;;;;;;6002498;23;20265;-74
2023/05/25 02:59:49;;;;;;;6.90;3.95;;;10.60;99.90;;;;;;6004597;23;20201;-74
2023/05/25 03:02:19;;;;;;;8.20;4.40;;;10.60;99.90;;;;;;6002429;23;20204;-73
2023/05/25 03:04:48;;;;;;;5.68;4.20;;;10.80;99.90;;;;;;5988428;23;20218;-75
2023/05/25 03:07:15;;;;;;;10.10;4.22;;;10.60;99.90;;;;;;6004358;23;20295;-74
2023/05/25 03:09:42;;;;;;;9.38;4.20;;;10.60;99.90;;;;;;6004602;23;20642;-74
2023/05/25 03:12:09;;;;;;;8.40;4.20;;;10.50;99.90;;;;;;6007957;23;20939;-74
2023/05/25 03:14:36;;;;;;;9.07;4.20;;;10.50;99.90;;;;;;5999723;23;20204;-74
2023/05/25 03:17:05;;;;;;;7.45;4.00;;;10.50;99.90;;;;;;6004267;23;20720;-74
2023/05/25 03:19:32;;;;;;;10.95;4.78;;;10.50;99.90;;;;;;5985205;23;20193;-74
2023/05/25 03:21:59;;;;;;;8.02;4.40;;;10.40;99.90;;;;;;6003232;23;20194;-74
2023/05/25 03:24:27;;;;;;;6.63;4.15;;;10.40;99.90;;;;;;6005532;23;20298;-74
2023/05/25 03:26:54;;;;;;;6.78;3.80;;;10.40;99.90;;;;;;6003649;23;20293;-74
2023/05/25 03:29:21;;;;;;;7.63;4.07;;;10.40;99.90;;;;;;6000608;23;20189;-71
2023/05/25 03:31:48;;;;;;;7.28;4.15;;;10.40;99.90;;;;;;6004847;23;20228;-74
2023/05/25 03:34:17;;;;;;;9.00;4.35;;;10.40;99.90;;;;;;5998626;23;20217;-75
2023/05/25 03:36:46;;;;;;;6.88;3.85;;;10.40;99.90;;;;;;5986744;23;20220;-75
2023/05/25 03:39:13;;;;;;;6.40;4.20;;;10.30;99.90;;;;;;6004521;23;20659;-74
2023/05/25 03:41:41;;;;;;;7.78;4.68;;;10.30;99.90;;;;;;6004864;23;20196;-74
2023/05/25 03:44:09;;;;;;;7.43;4.07;;;10.30;99.90;;;;;;6003873;23;20688;-75
2023/05/25 03:46:38;;;;;;;6.82;4.47;;;10.40;99.90;;;;;;5979036;23;20899;-75
2023/05/25 03:49:05;;;;;;;8.07;4.40;;;10.30;99.90;;;;;;5978352;24;20624;-75
2023/05/25 03:51:33;;;;;;;8.18;4.20;;;10.30;99.90;;;;;;5979575;23;20870;-75
2023/05/25 03:54:00;;;;;;;7.35;4.20;;;10.30;99.90;;;;;;5986260;23;20266;-74
2023/05/25 03:56:27;;;;;;;9.35;5.05;;;10.30;99.90;;;;;;6001409;23;20880;-74
2023/05/25 03:58:55;;;;;;;5.82;4.43;;;10.30;99.90;;;;;;6004724;23;20231;-75
2023/05/25 04:01:25;;;;;;;7.05;4.00;;;10.30;99.90;;;;;;6005991;23;20273;-75
2023/05/25 04:03:52;;;;;;;6.32;3.90;;;10.30;99.90;;;;;;6004463;23;20202;-75
2023/05/25 04:06:20;;;;;;;5.55;4.40;;;10.30;99.90;;;;;;6003378;23;20321;-75
2023/05/25 04:08:48;;;;;;;7.45;4.38;;;10.30;99.90;;;;;;5994358;23;20194;-75
2023/05/25 04:11:15;;;;;;;8.77;4.43;;;10.30;99.90;;;;;;5991611;23;20266;-73
2023/05/25 04:13:42;;;;;;;9.95;4.60;;;10.30;99.90;;;;;;5999770;23;20192;-72
2023/05/25 04:16:11;;;;;;;5.95;4.40;;;10.30;99.90;;;;;;5998136;23;20201;-74
2023/05/25 04:18:38;;;;;;;9.50;4.68;;;10.30;99.90;;;;;;6000401;23;20633;-77
2023/05/25 04:21:05;;;;;;;11.23;5.50;;;10.40;99.90;;;;;;5981524;23;20243;-73
2023/05/25 04:23:33;;;;;;;7.45;4.68;;;10.40;99.90;;;;;;5985889;23;20197;-73
2023/05/25 04:26:02;;;;;;;7.63;4.50;;;10.40;99.90;;;;;;6002214;23;20222;-73
2023/05/25 04:28:29;;;;;;;9.60;4.35;;;10.40;99.90;;;;;;5991040;23;20187;-75
2023/05/25 04:30:56;;;;;;;8.57;4.93;;;10.40;99.90;;;;;;5996884;23;20826;-74
2023/05/25 04:33:28;;;;;;;7.20;4.00;;;10.50;99.90;;;;;;5998229;23;20198;-75
2023/05/25 04:35:57;;;;;;;7.22;4.70;;;10.50;99.90;;;;;;6001791;23;20293;-75
2023/05/25 04:38:24;;;;;;;7.63;4.40;;;10.60;99.90;;;;;;6004899;23;20197;-75
2023/05/25 04:40:52;;;;;;;9.25;4.63;;;10.60;99.90;;;;;;6005559;23;20249;-75
2023/05/25 04:43:21;;;;;;;8.02;4.47;;;10.60;99.90;;;;;;6003111;23;20230;-74
2023/05/25 04:45:50;;;;;;;9.93;4.93;;;10.60;99.90;;;;;;5986176;23;20225;-75
2023/05/25 04:48:17;;;;;;;5.10;4.35;;;10.60;99.90;;;;;;6003375;23;20225;-75
2023/05/25 04:50:44;;;;;;;9.68;4.97;;;10.70;99.90;;;;;;6003496;23;20202;-73
2023/05/25 04:53:11;;;;;;;7.70;4.57;;;10.70;99.90;;;;;;5979514;23;20186;-75
2023/05/25 04:55:38;;;;;;;10.38;4.30;;;10.80;99.90;;;;;;5970742;23;21262;-74
2023/05/25 04:58:06;;;;;;;8.98;4.57;;;10.80;99.90;;;;;;5982008;23;20217;-84
2023/05/25 05:00:35;;;;;;;6.40;4.35;;;10.90;99.90;;;;;;5991117;23;20199;-83
2023/05/25 05:03:02;;;;;;;5.78;4.80;;;10.90;99.90;;;;;;5981135;23;20731;-81
2023/05/25 05:05:32;;;;;;;10.18;5.18;;;11.00;99.90;;;;;;5969059;23;20683;-74
2023/05/25 05:07:59;;;;;;;6.72;4.75;;;11.10;99.90;;;;;;5980868;23;20690;-74
2023/05/25 05:10:25;;;;;;;7.28;4.38;;;11.20;99.90;;;;;;5978010;23;20246;-74
2023/05/25 05:12:53;;;;;;;6.38;4.20;;;11.30;99.90;;;;;;5971106;23;20246;-74
2023/05/25 05:15:20;;;;;;;8.90;4.90;;;11.30;99.90;;;;;;5978753;23;20269;-74
2023/05/25 05:17:48;;;;;;;7.25;4.75;;;11.40;99.90;;;;;;5978935;23;20207;-74
2023/05/25 05:20:15;;;;;;;8.57;4.68;;;11.50;99.90;;;;;;5972805;23;20187;-74
2023/05/25 05:22:42;;;;;;;8.45;4.43;;;11.60;99.90;;;;;;5976822;23;20554;-74
2023/05/25 05:25:10;;;;;;;7.93;4.50;;;11.60;99.90;;;;;;5983602;23;20291;-74
2023/05/25 05:27:37;;;;;;;6.63;4.70;;;11.70;99.90;;;;;;5992863;23;20264;-74
2023/05/25 05:30:05;;;;;;;7.05;4.85;;;11.70;99.90;;;;;;5975895;23;20197;-75
2023/05/25 05:32:52;;;;;;;11.55;5.45;;;11.80;99.90;;;;;;5995548;23;20197;-74
2023/05/25 05:35:19;;;;;;;7.40;5.32;;;11.90;99.90;;;;;;5997679;23;20195;-74
2023/05/25 05:37:47;;;;;;;7.60;5.13;;;11.90;99.90;;;;;;5982095;23;20888;-75
2023/05/25 05:40:14;;;;;;;9.00;4.70;;;12.00;99.90;;;;;;5983438;23;20431;-75
2023/05/25 05:42:41;;;;;;;6.75;4.40;;;12.10;99.90;;;;;;5977624;23;20193;-75
2023/05/25 05:45:09;;;;;;;5.57;4.53;;;12.20;99.90;;;;;;5987151;23;20227;-75
2023/05/25 05:47:36;;;;;;;7.10;5.15;;;12.20;99.90;;;;;;5986751;23;20715;-74
2023/05/25 05:50:06;;;;;;;9.60;5.25;;;12.40;99.90;;;;;;6001061;23;20712;-74
2023/05/25 05:52:33;;;;;;;7.90;4.50;;;12.40;99.90;;;;;;5985310;23;20310;-74
2023/05/25 05:55:00;;;;;;;9.15;4.90;;;12.50;99.90;;;;;;5987033;23;20189;-75
2023/05/25 05:57:28;;;;;;;9.60;5.20;;;12.90;99.90;;;;;;6004683;23;20218;-75
2023/05/25 05:59:55;;;;;;;7.77;5.23;;;12.70;99.90;;;;;;6005020;23;20965;-74
2023/05/25 06:02:22;;;;;;;7.40;4.70;;;12.80;99.90;;;;;;6005092;23;20466;-74
2023/05/25 06:04:49;;;;;;;7.60;4.83;;;12.90;99.90;;;;;;5991508;23;20439;-74
2023/05/25 06:07:18;;;;;;;7.87;5.27;;;13.00;99.90;;;;;;5987844;23;20459;-75
2023/05/25 06:09:45;;;;;;;8.87;5.43;;;13.10;99.90;;;;;;5999738;23;20469;-74
2023/05/25 06:12:12;;;;;;;8.23;5.40;;;13.10;99.90;;;;;;5993098;23;20546;-73
2023/05/25 06:14:39;;;;;;;10.77;5.50;;;13.20;99.90;;;;;;6002545;23;20525;-74
2023/05/25 06:17:06;;;;;;;8.20;5.37;;;13.30;99.90;;;;;;5988325;23;20453;-74
2023/05/25 06:19:33;;;;;;;9.87;4.90;;;13.40;99.90;;;;;;5997642;23;20939;-74
2023/05/25 06:22:00;;;;;;;10.43;5.60;;;13.50;99.90;;;;;;5987005;23;20436;-74
2023/05/25 06:24:28;;;;;;;12.20;6.30;;;13.60;99.90;;;;;;5989887;23;20929;-75
2023/05/25 06:26:55;;;;;;;10.57;5.83;;;13.70;99.90;;;;;;5981874;23;20466;-74
2023/05/25 06:29:22;;;;;;;10.23;5.30;;;13.80;99.90;;;;;;5985201;23;20435;-74
2023/05/25 06:31:49;;;;;;;10.30;5.17;;;13.80;99.90;;;;;;5980632;23;20950;-74
2023/05/25 06:34:16;;;;;;;10.00;4.73;;;13.90;99.90;;;;;;6001936;23;20448;-75
2023/05/25 06:36:43;;;;;;;8.60;5.27;;;14.00;99.90;;;;;;6003339;23;20471;-75
2023/05/25 06:39:10;;;;;;;7.57;4.87;;;14.10;99.90;;;;;;6000963;23;20528;-74
2023/05/25 06:41:39;;;;;;;9.40;5.70;;;14.10;99.90;;;;;;6001214;23;20502;-74
2023/05/25 06:44:06;;;;;;;9.83;5.00;;;14.20;99.90;;;;;;6004638;23;20443;-74
2023/05/25 06:46:33;;;;;;;10.27;5.23;;;14.30;99.90;;;;;;5999271;23;20538;-75
2023/05/25 06:49:01;;;;;;;7.90;5.30;;;14.40;99.90;;;;;;5992706;23;20520;-75
2023/05/25 06:51:28;;;;;;;8.73;4.87;;;14.50;99.90;;;;;;6001754;23;20437;-74
2023/05/25 06:53:55;;;;;;;6.17;5.33;;;14.60;99.90;;;;;;5997374;23;20528;-75
2023/05/25 06:56:23;;;;;;;7.77;5.80;;;14.70;99.90;;;;;;6004693;23;20852;-75
2023/05/25 06:58:51;;;;;;;8.87;5.40;;;14.90;99.90;;;;;;5993821;23;20434;-74
2023/05/25 07:01:18;;;;;;;10.53;5.90;;;15.00;99.90;;;;;;5987767;23;20433;-76
2023/05/25 07:03:45;;;;;;;6.67;4.90;;;15.10;99.90;;;;;;5976338;23;20437;-74
2023/05/25 07:06:13;;;;;;;7.40;4.80;;;15.20;99.90;;;;;;5974241;23;20474;-74
2023/05/25 07:08:41;;;;;;;8.63;5.37;;;15.40;99.90;;;;;;5972792;23;20464;-74
2023/05/25 07:11:11;;;;;;;8.40;4.80;;;15.60;99.90;;;;;;5984732;23;20434;-75
2023/05/25 07:13:38;;;;;;;7.33;5.00;;;15.80;99.90;;;;;;5999954;23;20425;-75
2023/05/25 07:16:06;;;;;;;9.37;5.47;;;16.00;99.90;;;;;;5994517;23;20461;-74
2023/05/25 07:18:33;;;;;;;9.10;5.00;;;16.10;99.90;;;;;;5999263;23;20536;-74
2023/05/25 07:21:00;;;;;;;13.10;5.63;;;16.20;99.90;;;;;;5979226;23;20434;-75
2023/05/25 07:23:27;;;;;;;11.13;6.03;;;16.40;99.90;;;;;;5982492;23;20957;-74
2023/05/25 07:25:55;;;;;;;10.30;4.83;;;16.40;99.90;;;;;;5994803;23;20904;-75
2023/05/25 07:28:21;;;;;;;8.17;4.57;;;16.50;99.90;;;;;;5988732;23;20445;-74
2023/05/25 07:30:48;;;;;;;8.00;4.50;;;16.50;99.90;;;;;;6000945;23;20451;-74
2023/05/25 07:33:17;;;;;;;8.93;4.90;;;16.60;99.90;;;;;;6002483;23;20445;-74
2023/05/25 07:35:44;;;;;;;8.00;5.20;;;16.70;99.90;;;;;;6004075;23;21079;-74
2023/05/25 07:38:11;;;;;;;7.03;4.93;;;16.80;99.90;;;;;;5990569;23;20441;-74
2023/05/25 07:40:38;;;;;;;7.80;5.20;;;17.00;99.90;;;;;;5973853;23;20532;-74
2023/05/25 07:43:05;;;;;;;7.53;5.13;;;17.10;99.90;;;;;;5992772;23;20429;-74
2023/05/25 07:45:32;;;;;;;8.17;5.40;;;17.20;99.90;;;;;;6001481;23;20535;-74
2023/05/25 07:47:59;;;;;;;7.80;5.50;;;17.30;99.90;;;;;;5987751;23;20964;-74
2023/05/25 07:50:27;;;;;;;6.57;5.00;;;17.30;99.90;;;;;;5983102;23;20540;-74
2023/05/25 07:52:54;;;;;;;10.37;5.87;;;17.40;99.90;;;;;;5992258;23;20461;-74
2023/05/25 07:55:21;;;;;;;7.70;5.43;;;17.40;99.90;;;;;;6001821;23;20508;-75
2023/05/25 07:57:48;;;;;;;8.20;6.17;;;17.50;99.90;;;;;;6004053;23;20516;-75
2023/05/25 08:00:16;;;;;;;6.83;5.20;;;17.60;99.90;;;;;;5996904;23;20464;-75
2023/05/25 08:02:43;;;;;;;7.27;4.83;;;17.60;99.90;;;;;;5991841;23;20437;-75
2023/05/25 08:05:11;;;;;;;7.57;5.27;;;17.60;99.90;;;;;;5987447;23;20939;-75
2023/05/25 08:07:40;;;;;;;9.70;6.20;;;17.70;99.90;;;;;;5996027;23;20479;-75
2023/05/25 08:10:09;;;;;;;7.87;5.90;;;17.80;99.90;;;;;;5988931;23;20498;-75
2023/05/25 08:12:36;;;;;;;8.33;5.33;;;17.90;99.90;;;;;;5977263;23;21202;-75
2023/05/25 08:15:03;;;;;;;9.80;6.70;;;18.00;99.90;;;;;;5977540;23;20461;-75
2023/05/25 08:17:30;;;;;;;9.20;6.00;;;18.20;99.90;;;;;;5977885;23;20515;-75
2023/05/25 08:19:57;;;;;;;8.70;6.30;;;18.40;99.90;;;;;;5981872;23;20518;-75
2023/05/25 08:22:24;;;;;;;11.40;6.50;;;18.50;99.90;;;;;;6003249;23;20432;-75
2023/05/25 08:24:52;;;;;;;10.33;6.23;;;18.60;99.90;;;;;;6004504;23;20523;-75
2023/05/25 08:27:20;;;;;;;8.40;6.37;;;18.90;99.90;;;;;;5998518;23;20476;-75
2023/05/25 08:29:47;;;;;;;7.93;5.67;;;19.20;99.90;;;;;;5985655;23;20514;-75
2023/05/25 08:32:14;;;;;;;9.27;6.30;;;19.80;99.90;;;;;;5983148;23;20467;-75
2023/05/25 08:34:41;;;;;;;9.10;7.07;;;19.70;99.70;;;;;;5967445;23;21001;-75
2023/05/25 08:37:08;;;;;;;10.10;6.03;;;19.80;99.80;;;;;;5980048;23;20842;-75
2023/05/25 08:39:35;;;;;;;7.80;5.53;;;19.80;99.90;;;;;;5986531;23;20527;-75
2023/05/25 08:42:06;;;;;;;7.03;5.73;;;20.00;99.90;;;;;;5974723;23;20515;-75
2023/05/25 08:44:35;;;;;;;6.57;5.37;;;20.40;99.70;;;;;;5980735;23;20505;-75
2023/05/25 08:47:06;;;;;;;7.37;5.97;;;20.70;99.20;;;;;;5990291;23;20477;-75
2023/05/25 08:49:36;;;;;;;7.10;5.90;;;20.70;98.40;;;;;;5974301;23;20515;-74
2023/05/25 08:52:04;;;;;;;8.23;6.30;;;20.60;98.60;;;;;;5974000;23;20462;-75
2023/05/25 08:54:35;;;;;;;8.00;5.90;;;20.60;98.70;;;;;;5996214;23;20469;-75
2023/05/25 08:57:11;;;;;;;7.60;5.30;;;20.60;98.70;;;;;;5983015;23;20458;-75
2023/05/25 08:59:45;;;;;;;8.03;6.10;;;20.70;98.70;;;;;;5994052;23;20460;-75
2023/05/25 09:02:26;;;;;;;8.57;6.07;;;20.80;98.20;;;;;;5979539;23;20953;-75
2023/05/25 09:04:54;;;;;;;6.50;5.20;;;21.00;98.30;;;;;;5992346;23;20544;-75
2023/05/25 09:07:21;;;;;;;7.40;5.80;;;21.20;98.10;;;;;;5974791;23;20474;-75
2023/05/25 09:09:49;;;;;;;7.43;5.90;;;21.30;98.00;;;;;;5985574;23;20448;-75
2023/05/25 09:12:18;;;;;;;7.20;5.60;;;21.50;97.50;;;;;;5978066;23;20512;-75
2023/05/25 09:14:46;;;;;;;8.80;5.97;;;21.60;97.70;;;;;;5993034;23;20451;-75
2023/05/25 09:17:14;;;;;;;8.13;6.03;;;21.70;97.30;;;;;;5975767;23;20463;-75
2023/05/25 09:19:41;;;;;;;6.23;5.30;;;21.80;97.30;;;;;;5970706;23;20495;-75
2023/05/25 09:22:10;;;;;;;9.10;6.20;;;22.00;97.20;;;;;;5972593;23;20446;-75
2023/05/25 09:24:39;;;;;;;8.03;5.57;;;22.30;97.00;;;;;;5987379;23;20437;-75
2023/05/25 09:27:10;;;;;;;8.67;5.97;;;22.60;96.70;;;;;;5990708;23;20479;-75
2023/05/25 09:29:38;;;;;;;7.03;5.87;;;23.20;96.20;;;;;;5967968;23;21018;-75
2023/05/25 09:32:06;;;;;;;6.10;5.50;;;23.70;95.70;;;;;;5977351;23;20564;-76
2023/05/25 09:34:33;;;;;;;8.77;5.90;;;24.10;94.70;;;;;;5980530;23;20602;-76
2023/05/25 09:37:00;;;;;;;6.50;5.63;;;24.50;94.30;;;;;;5982483;23;20464;-75
2023/05/25 09:39:28;;;;;;;9.63;6.30;;;24.70;93.60;;;;;;5983558;23;20772;-75
2023/05/25 09:41:57;;;;;;;7.13;6.13;;;24.80;93.10;;;;;;5986360;23;20438;-75
2023/05/25 09:44:24;;;;;;;8.20;5.90;;;24.90;92.70;;;;;;5983420;23;21068;-77
2023/05/25 09:46:52;;;;;;;8.43;5.80;;;24.90;92.40;;;;;;5990536;23;20472;-75
2023/05/25 09:49:21;;;;;;;6.40;5.20;;;24.80;92.20;;;;;;5993253;23;20519;-75
2023/05/25 09:51:49;;;;;;;6.90;5.57;;;24.70;92.30;;;;;;5989771;23;20477;-75
2023/05/25 09:54:16;;;;;;;6.83;5.23;;;24.60;92.20;;;;;;5990101;23;20484;-75
2023/05/25 09:56:44;;;;;;;10.00;6.20;;;24.50;92.60;;;;;;6004846;23;20457;-75
2023/05/25 09:59:11;;;;;;;7.93;5.63;;;24.50;92.20;;;;;;6003293;23;20789;-75
2023/05/25 10:01:38;;;;;;;6.33;5.10;;;24.50;92.00;;;;;;5992646;23;20438;-75
2023/05/25 10:04:07;;;;;;;9.47;5.10;;;24.70;92.30;;;;;;6004859;23;20511;-75
2023/05/25 10:06:34;;;;;;;5.43;4.60;;;25.00;91.70;;;;;;5997965;23;20456;-75
2023/05/25 10:09:03;;;;;;;9.10;5.73;;;25.10;91.20;;;;;;5991970;23;20752;-76
2023/05/25 10:11:33;;;;;;;7.53;5.93;;;25.30;91.40;;;;;;6001880;23;20465;-76
2023/05/25 10:14:02;;;;;;;6.73;5.17;;;25.50;90.40;;;;;;5978117;23;20473;-75
2023/05/25 10:16:31;;;;;;;7.23;5.40;;;25.60;90.70;;;;;;5970678;23;20462;-75
2023/05/25 10:19:03;;;;;;;5.73;5.07;;;25.60;89.60;;;;;;5984651;23;20444;-76
2023/05/25 10:21:35;;;;;;;5.63;4.93;;;25.70;90.40;;;;;;5993028;23;20991;-76
2023/05/25 10:24:06;;;;;;;6.23;5.63;;;26.10;90.00;;;;;;5972041;23;20885;-75
2023/05/25 10:26:37;;;;;;;7.20;4.67;;;25.80;89.10;;;;;;5991633;23;20465;-76
2023/05/25 10:29:06;;;;;;;5.40;4.90;;;25.30;90.50;;;;;;5999809;23;20469;-76
2023/05/25 10:31:36;;;;;;;5.60;4.70;;;25.60;90.40;;;;;;5999731;23;20878;-76
2023/05/25 10:34:03;;;;;;;6.97;5.00;;;26.00;89.40;;;;;;5990008;23;20492;-75
2023/05/25 10:36:34;;;;;;;7.23;4.97;;;25.70;88.20;;;;;;5984861;23;20477;-76
2023/05/25 10:39:01;;;;;;;6.00;4.40;;;25.00;90.00;;;;;;5994407;23;20967;-76
2023/05/25 10:41:28;;;;;;;8.37;5.50;;;25.20;90.70;;;;;;6002839;23;20447;-76
2023/05/25 10:43:56;;;;;;;5.63;4.63;;;25.80;89.40;;;;;;6004277;23;20521;-76
2023/05/25 10:46:23;;;;;;;5.70;4.77;;;26.40;87.30;;;;;;6008918;23;20529;-76
2023/05/25 10:48:51;;;;;;;5.90;4.93;;;27.00;87.20;;;;;;6005168;23;20472;-77
2023/05/25 10:51:19;;;;;;;7.23;4.90;;;27.50;83.30;;;;;;6002369;23;20528;-76
2023/05/25 10:53:59;;;;;;;8.27;4.73;;;27.10;82.60;;;;;;5975072;23;20442;-76
2023/05/25 10:56:27;;;;;;;4.97;4.47;;;27.10;83.60;;;;;;6002343;23;20477;-76
2023/05/25 10:58:54;;;;;;;5.27;4.80;;;27.50;82.40;;;;;;6005114;23;20429;-76
2023/05/25 11:01:21;;;;;;;5.17;4.23;;;27.60;80.70;;;;;;6004281;23;20421;-75
2023/05/25 11:03:51;;;;;;;6.40;4.93;;;27.60;81.50;;;;;;5989803;23;20430;-76
2023/05/25 11:06:20;;;;;;;5.63;4.50;;;27.60;81.50;;;;;;6001415;23;20445;-76
2023/05/25 11:08:54;;;;;;;6.70;4.93;;;27.70;81.60;;;;;;6004384;23;20440;-76
2023/05/25 11:11:22;;;;;;;5.23;4.70;;;28.00;79.70;;;;;;5993621;23;20465;-76
2023/05/25 11:13:49;;;;;;;8.00;4.40;;;28.40;79.10;;;;;;5991462;23;21541;-76
2023/05/25 11:16:21;;;;;;;6.80;4.50;;;28.60;76.80;;;;;;5994880;23;20449;-76
2023/05/25 11:18:57;;;;;;;5.70;4.30;;;28.80;75.90;;;;;;5996624;23;20557;-76
2023/05/25 11:21:42;;;;;;;6.20;4.80;;;28.90;75.90;;;;;;5997250;23;20465;-76
2023/05/25 11:24:16;;;;;;;7.20;5.10;;;28.80;75.20;;;;;;5976094;23;20448;-77
2023/05/25 11:26:54;;;;;;;4.80;4.40;;;28.50;76.00;;;;;;5976050;23;20472;-76
2023/05/25 11:29:24;;;;;;;5.77;5.00;;;28.40;74.40;;;;;;5975266;23;20445;-76
2023/05/25 11:31:54;;;;;;;6.70;5.10;;;28.20;75.80;;;;;;5977278;23;20438;-76
2023/05/25 11:34:23;;;;;;;6.23;4.90;;;28.50;75.20;;;;;;5980827;23;20476;-76
2023/05/25 11:36:54;;;;;;;5.10;4.30;;;28.70;73.70;;;;;;5981992;23;20494;-76
2023/05/25 11:39:23;;;;;;;6.40;5.27;;;28.50;73.90;;;;;;5981288;23;20461;-76
2023/05/25 11:41:54;;;;;;;5.83;4.40;;;27.20;74.80;;;;;;5978320;23;20437;-76
2023/05/25 11:44:29;;;;;;;7.30;4.93;;;26.50;78.00;;;;;;5972524;23;20533;-76
2023/05/25 11:47:00;;;;;;;6.73;6.03;;;25.90;79.00;;;;;;5981520;23;20461;-77
2023/05/25 11:49:27;;;;;;;6.33;4.90;;;25.80;79.20;;;;;;5978988;23;20438;-77
2023/05/25 11:51:56;;;;;;;6.10;5.27;;;25.80;78.80;;;;;;5975035;23;20932;-77
2023/05/25 11:54:26;;;;;;;7.00;5.43;;;25.30;79.90;;;;;;5974548;23;20846;-77
2023/05/25 11:56:57;;;;;;;6.17;4.77;;;25.40;80.90;;;;;;5974552;23;20484;-77
2023/05/25 11:59:25;;;;;;;5.17;4.67;;;25.70;80.20;;;;;;5982888;23;20480;-76
2023/05/25 12:01:59;;;;;;;8.60;4.80;;;26.00;79.10;;;;;;5982459;23;20517;-76
2023/05/25 12:04:27;;;;;;;5.40;4.90;;;25.90;79.80;;;;;;5976956;23;20445;-76
2023/05/25 12:07:01;;;;;;;8.83;5.00;;;25.70;79.50;;;;;;5975326;23;20449;-77
2023/05/25 12:09:30;;;;;;;5.90;5.00;;;25.60;79.80;;;;;;5996591;23;20429;-77
2023/05/25 12:11:57;;;;;;;5.60;4.67;;;25.40;81.20;;;;;;5991748;23;20482;-76
2023/05/25 12:14:24;;;;;;;5.43;4.90;;;25.40;80.70;;;;;;5979139;23;20503;-76
2023/05/25 12:16:52;;;;;;;6.97;4.77;;;25.40;80.60;;;;;;5983333;23;20466;-76
2023/05/25 12:19:19;;;;;;;6.17;5.23;;;25.50;80.90;;;;;;5978617;23;20455;-77
2023/05/25 12:21:49;;;;;;;8.27;5.50;;;25.50;79.90;;;;;;5986267;23;20466;-76
2023/05/25 12:24:18;;;;;;;5.83;4.93;;;25.40;80.60;;;;;;5985701;23;20450;-76
2023/05/25 12:26:50;;;;;;;6.60;5.60;;;25.40;80.50;;;;;;5986396;23;21050;-77
2023/05/25 12:29:17;;;;;;;6.47;5.43;;;25.40;79.80;;;;;;5972327;23;20532;-76
2023/05/25 12:31:44;;;;;;;6.40;5.50;;;25.00;80.40;;;;;;5984740;23;20438;-76
2023/05/25 12:34:13;;;;;;;6.63;5.50;;;24.80;82.00;;;;;;5976336;23;20437;-76
2023/05/25 12:36:47;;;;;;;5.57;5.07;;;24.70;82.00;;;;;;5984559;23;20465;-76
2023/05/25 12:39:16;;;;;;;6.37;5.00;;;24.90;83.50;;;;;;5985186;23;20443;-76
2023/05/25 12:41:51;;;;;;;6.87;5.00;;;24.70;82.20;;;;;;5975760;23;20445;-76
2023/05/25 12:44:24;;;;;;;7.10;4.87;;;24.80;82.50;;;;;;5981841;23;20433;-77
2023/05/25 12:46:52;;;;;;;7.10;5.10;;;25.20;82.80;;;;;;5987419;23;21094;-77
2023/05/25 12:49:27;;;;;;;5.73;4.93;;;25.80;81.50;;;;;;5986719;23;20822;-77
2023/05/25 12:51:55;;;;;;;7.17;5.23;;;26.40;80.40;;;;;;5979592;23;20437;-76